sensor_id;sensor_type;location;lat;lon;timestamp;P1;durP1;ratioP1;P2;durP2;ratioP2
15312;SDS011;7757;52.626;4.746;2023-03-01T00:02:09;6.97;;;1.98;;
15312;SDS011;7757;52.626;4.746;2023-03-01T00:04:54;7.45;;;1.85;;
15312;SDS011;7757;52.626;4.746;2023-03-01T00:07:40;8.88;;;2.00;;
15312;SDS011;7757;52.626;4.746;2023-03-01T00:10:27;9.07;;;2.10;;
15312;SDS011;7757;52.626;4.746;2023-03-01T00:13:12;7.10;;;1.85;;
15312;SDS011;7757;52.626;4.746;2023-03-01T00:15:57;8.05;;;1.90;;
15312;SDS011;7757;52.626;4.746;2023-03-01T00:18:43;7.15;;;1.90;;
15312;SDS011;7757;52.626;4.746;2023-03-01T00:21:28;7.53;;;1.83;;
15312;SDS011;7757;52.626;4.746;2023-03-01T00:24:14;6.55;;;1.80;;
15312;SDS011;7757;52.626;4.746;2023-03-01T00:27:01;7.35;;;1.95;;
15312;SDS011;7757;52.626;4.746;2023-03-01T00:29:46;7.30;;;1.95;;
15312;SDS011;7757;52.626;4.746;2023-03-01T00:32:31;7.30;;;1.90;;
15312;SDS011;7757;52.626;4.746;2023-03-01T00:35:17;7.95;;;2.08;;
15312;SDS011;7757;52.626;4.746;2023-03-01T00:38:02;6.80;;;2.00;;
15312;SDS011;7757;52.626;4.746;2023-03-01T00:40:48;6.82;;;1.98;;
15312;SDS011;7757;52.626;4.746;2023-03-01T00:43:35;7.38;;;2.00;;
15312;SDS011;7757;52.626;4.746;2023-03-01T00:46:24;8.40;;;1.90;;
15312;SDS011;7757;52.626;4.746;2023-03-01T00:49:11;6.38;;;2.00;;
15312;SDS011;7757;52.626;4.746;2023-03-01T00:51:56;7.10;;;1.95;;
15312;SDS011;7757;52.626;4.746;2023-03-01T00:54:42;8.30;;;1.98;;
15312;SDS011;7757;52.626;4.746;2023-03-01T00:57:27;8.35;;;2.13;;
15312;SDS011;7757;52.626;4.746;2023-03-01T01:00:14;7.30;;;1.98;;
15312;SDS011;7757;52.626;4.746;2023-03-01T01:03:00;10.30;;;1.95;;
15312;SDS011;7757;52.626;4.746;2023-03-01T01:05:46;7.80;;;1.95;;
15312;SDS011;7757;52.626;4.746;2023-03-01T01:08:31;7.93;;;2.00;;
15312;SDS011;7757;52.626;4.746;2023-03-01T01:11:16;6.55;;;1.73;;
15312;SDS011;7757;52.626;4.746;2023-03-01T01:14:02;6.47;;;1.90;;
15312;SDS011;7757;52.626;4.746;2023-03-01T01:16:49;8.32;;;2.08;;
15312;SDS011;7757;52.626;4.746;2023-03-01T01:19:34;7.50;;;2.20;;
15312;SDS011;7757;52.626;4.746;2023-03-01T01:22:20;7.55;;;1.88;;
15312;SDS011;7757;52.626;4.746;2023-03-01T01:25:05;7.18;;;1.90;;
15312;SDS011;7757;52.626;4.746;2023-03-01T01:27:52;6.35;;;1.90;;
15312;SDS011;7757;52.626;4.746;2023-03-01T01:30:37;6.82;;;1.73;;
15312;SDS011;7757;52.626;4.746;2023-03-01T01:33:24;6.68;;;1.73;;
15312;SDS011;7757;52.626;4.746;2023-03-01T01:36:11;7.18;;;2.00;;
15312;SDS011;7757;52.626;4.746;2023-03-01T01:38:57;6.35;;;1.80;;
15312;SDS011;7757;52.626;4.746;2023-03-01T01:41:42;6.93;;;1.83;;
15312;SDS011;7757;52.626;4.746;2023-03-01T01:44:28;6.32;;;1.83;;
15312;SDS011;7757;52.626;4.746;2023-03-01T01:47:14;7.38;;;1.80;;
15312;SDS011;7757;52.626;4.746;2023-03-01T01:50:04;6.03;;;1.58;;
15312;SDS011;7757;52.626;4.746;2023-03-01T01:52:50;5.22;;;1.70;;
15312;SDS011;7757;52.626;4.746;2023-03-01T01:55:37;7.70;;;2.17;;
15312;SDS011;7757;52.626;4.746;2023-03-01T01:58:27;6.78;;;1.90;;
15312;SDS011;7757;52.626;4.746;2023-03-01T02:01:14;6.80;;;1.90;;
15312;SDS011;7757;52.626;4.746;2023-03-01T02:04:00;6.82;;;1.90;;
15312;SDS011;7757;52.626;4.746;2023-03-01T02:06:48;7.38;;;2.00;;
15312;SDS011;7757;52.626;4.746;2023-03-01T02:09:39;6.25;;;1.88;;
15312;SDS011;7757;52.626;4.746;2023-03-01T02:12:27;8.00;;;2.10;;
15312;SDS011;7757;52.626;4.746;2023-03-01T02:15:13;7.43;;;2.00;;
15312;SDS011;7757;52.626;4.746;2023-03-01T02:17:59;8.02;;;1.90;;
15312;SDS011;7757;52.626;4.746;2023-03-01T02:20:49;7.78;;;1.98;;
15312;SDS011;7757;52.626;4.746;2023-03-01T02:23:44;7.22;;;1.90;;
15312;SDS011;7757;52.626;4.746;2023-03-01T02:26:33;7.18;;;1.90;;
15312;SDS011;7757;52.626;4.746;2023-03-01T02:29:29;7.53;;;1.90;;
15312;SDS011;7757;52.626;4.746;2023-03-01T02:32:14;8.10;;;2.00;;
15312;SDS011;7757;52.626;4.746;2023-03-01T02:35:09;6.97;;;1.90;;
15312;SDS011;7757;52.626;4.746;2023-03-01T02:37:58;7.55;;;1.95;;
15312;SDS011;7757;52.626;4.746;2023-03-01T02:40:45;5.70;;;1.77;;
15312;SDS011;7757;52.626;4.746;2023-03-01T02:43:33;7.13;;;1.83;;
15312;SDS011;7757;52.626;4.746;2023-03-01T02:46:21;6.50;;;1.70;;
15312;SDS011;7757;52.626;4.746;2023-03-01T02:49:16;7.75;;;2.00;;
15312;SDS011;7757;52.626;4.746;2023-03-01T02:55:16;8.35;;;2.05;;
15312;SDS011;7757;52.626;4.746;2023-03-01T02:58:02;7.55;;;1.73;;
15312;SDS011;7757;52.626;4.746;2023-03-01T03:00:48;6.13;;;1.75;;
15312;SDS011;7757;52.626;4.746;2023-03-01T03:03:35;7.30;;;1.90;;
15312;SDS011;7757;52.626;4.746;2023-03-01T03:06:20;7.80;;;1.98;;
15312;SDS011;7757;52.626;4.746;2023-03-01T03:09:05;8.18;;;2.03;;
15312;SDS011;7757;52.626;4.746;2023-03-01T03:11:51;7.90;;;1.90;;
15312;SDS011;7757;52.626;4.746;2023-03-01T03:14:37;6.90;;;1.98;;
15312;SDS011;7757;52.626;4.746;2023-03-01T03:17:22;6.50;;;1.80;;
15312;SDS011;7757;52.626;4.746;2023-03-01T03:20:11;7.38;;;1.80;;
15312;SDS011;7757;52.626;4.746;2023-03-01T03:23:02;8.40;;;1.90;;
15312;SDS011;7757;52.626;4.746;2023-03-01T03:25:48;4.57;;;1.48;;
15312;SDS011;7757;52.626;4.746;2023-03-01T03:28:34;7.60;;;1.65;;
15312;SDS011;7757;52.626;4.746;2023-03-01T03:31:23;7.47;;;1.92;;
15312;SDS011;7757;52.626;4.746;2023-03-01T03:34:09;6.22;;;1.98;;
15312;SDS011;7757;52.626;4.746;2023-03-01T03:37:03;7.43;;;1.83;;
15312;SDS011;7757;52.626;4.746;2023-03-01T03:40:09;5.40;;;1.70;;
15312;SDS011;7757;52.626;4.746;2023-03-01T03:42:58;6.68;;;1.80;;
15312;SDS011;7757;52.626;4.746;2023-03-01T03:45:45;7.40;;;1.95;;
15312;SDS011;7757;52.626;4.746;2023-03-01T03:48:31;7.55;;;1.90;;
15312;SDS011;7757;52.626;4.746;2023-03-01T03:51:18;6.57;;;1.77;;
15312;SDS011;7757;52.626;4.746;2023-03-01T03:54:07;7.13;;;2.00;;
15312;SDS011;7757;52.626;4.746;2023-03-01T03:56:54;7.32;;;2.10;;
15312;SDS011;7757;52.626;4.746;2023-03-01T03:59:39;7.53;;;1.83;;
15312;SDS011;7757;52.626;4.746;2023-03-01T04:02:25;7.85;;;1.90;;
15312;SDS011;7757;52.626;4.746;2023-03-01T04:05:11;5.97;;;1.75;;
15312;SDS011;7757;52.626;4.746;2023-03-01T04:07:58;7.18;;;2.00;;
15312;SDS011;7757;52.626;4.746;2023-03-01T04:10:55;7.18;;;1.85;;
15312;SDS011;7757;52.626;4.746;2023-03-01T04:13:42;8.32;;;2.05;;
15312;SDS011;7757;52.626;4.746;2023-03-01T04:16:28;7.93;;;2.10;;
15312;SDS011;7757;52.626;4.746;2023-03-01T04:19:13;7.68;;;2.00;;
15312;SDS011;7757;52.626;4.746;2023-03-01T04:22:01;6.97;;;1.77;;
15312;SDS011;7757;52.626;4.746;2023-03-01T04:24:50;6.80;;;1.73;;
15312;SDS011;7757;52.626;4.746;2023-03-01T04:27:37;5.40;;;1.80;;
15312;SDS011;7757;52.626;4.746;2023-03-01T04:30:23;7.53;;;1.80;;
15312;SDS011;7757;52.626;4.746;2023-03-01T04:33:09;6.38;;;1.80;;
15312;SDS011;7757;52.626;4.746;2023-03-01T04:35:56;7.95;;;2.00;;
15312;SDS011;7757;52.626;4.746;2023-03-01T04:38:41;7.40;;;1.95;;
15312;SDS011;7757;52.626;4.746;2023-03-01T04:41:31;7.47;;;2.03;;
15312;SDS011;7757;52.626;4.746;2023-03-01T04:44:17;7.70;;;1.85;;
15312;SDS011;7757;52.626;4.746;2023-03-01T04:47:03;7.38;;;1.80;;
15312;SDS011;7757;52.626;4.746;2023-03-01T04:49:48;8.00;;;2.17;;
15312;SDS011;7757;52.626;4.746;2023-03-01T04:52:33;6.45;;;1.83;;
15312;SDS011;7757;52.626;4.746;2023-03-01T04:55:19;7.95;;;2.10;;
15312;SDS011;7757;52.626;4.746;2023-03-01T04:58:04;7.65;;;1.90;;
15312;SDS011;7757;52.626;4.746;2023-03-01T05:00:52;5.15;;;1.70;;
15312;SDS011;7757;52.626;4.746;2023-03-01T05:03:38;8.05;;;2.08;;
15312;SDS011;7757;52.626;4.746;2023-03-01T05:06:23;7.85;;;2.00;;
15312;SDS011;7757;52.626;4.746;2023-03-01T05:09:08;8.27;;;2.10;;
15312;SDS011;7757;52.626;4.746;2023-03-01T05:11:54;6.53;;;1.85;;
15312;SDS011;7757;52.626;4.746;2023-03-01T05:14:40;7.65;;;2.17;;
15312;SDS011;7757;52.626;4.746;2023-03-01T05:17:28;8.27;;;2.08;;
15312;SDS011;7757;52.626;4.746;2023-03-01T05:20:13;7.15;;;2.05;;
15312;SDS011;7757;52.626;4.746;2023-03-01T05:22:59;6.85;;;1.90;;
15312;SDS011;7757;52.626;4.746;2023-03-01T05:25:48;6.32;;;1.80;;
15312;SDS011;7757;52.626;4.746;2023-03-01T05:28:35;8.70;;;2.10;;
15312;SDS011;7757;52.626;4.746;2023-03-01T05:31:23;7.30;;;1.88;;
15312;SDS011;7757;52.626;4.746;2023-03-01T05:34:10;7.30;;;2.03;;
15312;SDS011;7757;52.626;4.746;2023-03-01T05:36:56;6.65;;;1.90;;
15312;SDS011;7757;52.626;4.746;2023-03-01T05:39:42;7.03;;;2.03;;
15312;SDS011;7757;52.626;4.746;2023-03-01T05:42:27;7.47;;;2.00;;
15312;SDS011;7757;52.626;4.746;2023-03-01T05:45:13;6.95;;;1.90;;
15312;SDS011;7757;52.626;4.746;2023-03-01T05:47:59;6.72;;;1.88;;
15312;SDS011;7757;52.626;4.746;2023-03-01T05:50:46;6.45;;;1.77;;
15312;SDS011;7757;52.626;4.746;2023-03-01T05:53:31;7.05;;;1.90;;
15312;SDS011;7757;52.626;4.746;2023-03-01T05:56:17;8.23;;;2.50;;
15312;SDS011;7757;52.626;4.746;2023-03-01T05:59:02;9.23;;;2.28;;
15312;SDS011;7757;52.626;4.746;2023-03-01T06:01:49;6.68;;;1.92;;
15312;SDS011;7757;52.626;4.746;2023-03-01T06:04:35;9.15;;;2.20;;
15312;SDS011;7757;52.626;4.746;2023-03-01T06:07:21;7.20;;;2.10;;
15312;SDS011;7757;52.626;4.746;2023-03-01T06:10:08;8.40;;;2.13;;
15312;SDS011;7757;52.626;4.746;2023-03-01T06:12:54;8.50;;;2.10;;
15312;SDS011;7757;52.626;4.746;2023-03-01T06:15:40;7.57;;;2.00;;
15312;SDS011;7757;52.626;4.746;2023-03-01T06:18:25;8.02;;;1.90;;
15312;SDS011;7757;52.626;4.746;2023-03-01T06:21:11;9.65;;;2.03;;
15312;SDS011;7757;52.626;4.746;2023-03-01T06:23:58;8.02;;;2.20;;
15312;SDS011;7757;52.626;4.746;2023-03-01T06:26:43;7.63;;;2.10;;
15312;SDS011;7757;52.626;4.746;2023-03-01T06:29:28;7.53;;;2.10;;
15312;SDS011;7757;52.626;4.746;2023-03-01T06:32:14;9.32;;;2.00;;
15312;SDS011;7757;52.626;4.746;2023-03-01T06:34:59;8.90;;;2.47;;
15312;SDS011;7757;52.626;4.746;2023-03-01T06:37:45;7.10;;;1.92;;
15312;SDS011;7757;52.626;4.746;2023-03-01T06:40:32;10.23;;;2.28;;
15312;SDS011;7757;52.626;4.746;2023-03-01T06:43:18;9.40;;;2.17;;
15312;SDS011;7757;52.626;4.746;2023-03-01T06:46:04;8.88;;;2.33;;
15312;SDS011;7757;52.626;4.746;2023-03-01T06:48:51;9.27;;;2.30;;
15312;SDS011;7757;52.626;4.746;2023-03-01T06:51:36;8.07;;;2.17;;
15312;SDS011;7757;52.626;4.746;2023-03-01T06:54:22;8.70;;;2.40;;
15312;SDS011;7757;52.626;4.746;2023-03-01T06:57:08;8.23;;;2.08;;
15312;SDS011;7757;52.626;4.746;2023-03-01T06:59:57;9.40;;;2.40;;
15312;SDS011;7757;52.626;4.746;2023-03-01T07:02:42;8.50;;;2.47;;
15312;SDS011;7757;52.626;4.746;2023-03-01T07:05:28;7.70;;;2.00;;
15312;SDS011;7757;52.626;4.746;2023-03-01T07:08:13;8.40;;;2.20;;
15312;SDS011;7757;52.626;4.746;2023-03-01T07:10:58;8.43;;;2.15;;
15312;SDS011;7757;52.626;4.746;2023-03-01T07:13:47;7.00;;;2.03;;
15312;SDS011;7757;52.626;4.746;2023-03-01T07:16:32;6.65;;;2.10;;
15312;SDS011;7757;52.626;4.746;2023-03-01T07:19:17;6.10;;;1.90;;
15312;SDS011;7757;52.626;4.746;2023-03-01T07:22:03;8.30;;;2.17;;
15312;SDS011;7757;52.626;4.746;2023-03-01T07:24:51;18.75;;;2.72;;
15312;SDS011;7757;52.626;4.746;2023-03-01T07:27:36;10.60;;;3.00;;
15312;SDS011;7757;52.626;4.746;2023-03-01T07:30:23;9.85;;;2.70;;
15312;SDS011;7757;52.626;4.746;2023-03-01T07:33:12;11.75;;;2.90;;
15312;SDS011;7757;52.626;4.746;2023-03-01T07:35:57;11.68;;;2.97;;
15312;SDS011;7757;52.626;4.746;2023-03-01T07:38:43;11.77;;;2.78;;
15312;SDS011;7757;52.626;4.746;2023-03-01T07:41:29;9.93;;;2.90;;
15312;SDS011;7757;52.626;4.746;2023-03-01T07:44:14;11.07;;;2.60;;
15312;SDS011;7757;52.626;4.746;2023-03-01T07:47:02;11.27;;;2.83;;
15312;SDS011;7757;52.626;4.746;2023-03-01T07:49:47;10.82;;;2.60;;
15312;SDS011;7757;52.626;4.746;2023-03-01T07:52:33;10.30;;;2.90;;
15312;SDS011;7757;52.626;4.746;2023-03-01T07:55:18;12.60;;;2.88;;
15312;SDS011;7757;52.626;4.746;2023-03-01T07:58:04;11.93;;;2.95;;
15312;SDS011;7757;52.626;4.746;2023-03-01T08:00:49;11.50;;;3.00;;
15312;SDS011;7757;52.626;4.746;2023-03-01T08:03:36;10.32;;;2.67;;
15312;SDS011;7757;52.626;4.746;2023-03-01T08:06:22;11.55;;;3.00;;
15312;SDS011;7757;52.626;4.746;2023-03-01T08:09:07;9.45;;;2.65;;
15312;SDS011;7757;52.626;4.746;2023-03-01T08:11:53;12.10;;;2.97;;
15312;SDS011;7757;52.626;4.746;2023-03-01T08:14:38;9.27;;;2.75;;
15312;SDS011;7757;52.626;4.746;2023-03-01T08:17:23;10.15;;;3.00;;
15312;SDS011;7757;52.626;4.746;2023-03-01T08:20:11;10.18;;;2.90;;
15312;SDS011;7757;52.626;4.746;2023-03-01T08:22:57;11.52;;;2.90;;
15312;SDS011;7757;52.626;4.746;2023-03-01T08:25:42;9.43;;;2.67;;
15312;SDS011;7757;52.626;4.746;2023-03-01T08:28:27;8.30;;;2.60;;
15312;SDS011;7757;52.626;4.746;2023-03-01T08:31:13;9.85;;;2.80;;
15312;SDS011;7757;52.626;4.746;2023-03-01T08:34:00;9.80;;;2.95;;
15312;SDS011;7757;52.626;4.746;2023-03-01T08:36:49;11.90;;;2.80;;
15312;SDS011;7757;52.626;4.746;2023-03-01T08:39:36;8.57;;;2.50;;
15312;SDS011;7757;52.626;4.746;2023-03-01T08:42:21;9.55;;;2.75;;
15312;SDS011;7757;52.626;4.746;2023-03-01T08:45:07;9.45;;;2.63;;
15312;SDS011;7757;52.626;4.746;2023-03-01T08:47:53;9.90;;;2.95;;
15312;SDS011;7757;52.626;4.746;2023-03-01T08:50:38;8.95;;;2.78;;
15312;SDS011;7757;52.626;4.746;2023-03-01T08:53:26;9.82;;;2.50;;
15312;SDS011;7757;52.626;4.746;2023-03-01T08:56:11;9.32;;;2.90;;
15312;SDS011;7757;52.626;4.746;2023-03-01T08:58:57;11.05;;;2.58;;
15312;SDS011;7757;52.626;4.746;2023-03-01T09:01:42;10.32;;;2.78;;
15312;SDS011;7757;52.626;4.746;2023-03-01T09:04:28;12.45;;;2.85;;
15312;SDS011;7757;52.626;4.746;2023-03-01T09:07:14;14.60;;;3.25;;
15312;SDS011;7757;52.626;4.746;2023-03-01T09:10:01;14.32;;;3.60;;
15312;SDS011;7757;52.626;4.746;2023-03-01T09:12:46;13.32;;;3.70;;
15312;SDS011;7757;52.626;4.746;2023-03-01T09:15:31;15.10;;;3.97;;
15312;SDS011;7757;52.626;4.746;2023-03-01T09:18:19;17.63;;;4.10;;
15312;SDS011;7757;52.626;4.746;2023-03-01T09:21:05;17.60;;;4.07;;
15312;SDS011;7757;52.626;4.746;2023-03-01T09:23:51;16.73;;;3.60;;
15312;SDS011;7757;52.626;4.746;2023-03-01T09:26:38;17.67;;;3.83;;
15312;SDS011;7757;52.626;4.746;2023-03-01T09:29:23;14.50;;;3.95;;
15312;SDS011;7757;52.626;4.746;2023-03-01T09:32:09;15.18;;;4.18;;
15312;SDS011;7757;52.626;4.746;2023-03-01T09:34:55;14.77;;;3.75;;
15312;SDS011;7757;52.626;4.746;2023-03-01T09:37:48;13.18;;;3.80;;
15312;SDS011;7757;52.626;4.746;2023-03-01T09:40:33;14.35;;;3.58;;
15312;SDS011;7757;52.626;4.746;2023-03-01T09:43:21;15.57;;;3.72;;
15312;SDS011;7757;52.626;4.746;2023-03-01T09:46:11;12.30;;;3.95;;
15312;SDS011;7757;52.626;4.746;2023-03-01T09:49:01;14.35;;;4.13;;
15312;SDS011;7757;52.626;4.746;2023-03-01T09:51:56;14.25;;;3.65;;
15312;SDS011;7757;52.626;4.746;2023-03-01T09:54:49;15.32;;;4.25;;
15312;SDS011;7757;52.626;4.746;2023-03-01T09:57:41;15.70;;;3.85;;
15312;SDS011;7757;52.626;4.746;2023-03-01T10:00:35;15.20;;;4.03;;
15312;SDS011;7757;52.626;4.746;2023-03-01T10:03:24;13.43;;;4.07;;
15312;SDS011;7757;52.626;4.746;2023-03-01T10:06:14;14.55;;;4.03;;
15312;SDS011;7757;52.626;4.746;2023-03-01T10:09:05;12.07;;;3.58;;
15312;SDS011;7757;52.626;4.746;2023-03-01T10:11:55;15.52;;;3.85;;
15312;SDS011;7757;52.626;4.746;2023-03-01T10:14:43;11.95;;;3.15;;
15312;SDS011;7757;52.626;4.746;2023-03-01T10:17:37;12.77;;;3.78;;
15312;SDS011;7757;52.626;4.746;2023-03-01T10:20:28;12.98;;;3.47;;
15312;SDS011;7757;52.626;4.746;2023-03-01T10:23:18;13.57;;;3.65;;
15312;SDS011;7757;52.626;4.746;2023-03-01T10:26:09;12.65;;;3.40;;
15312;SDS011;7757;52.626;4.746;2023-03-01T10:29:05;13.93;;;3.58;;
15312;SDS011;7757;52.626;4.746;2023-03-01T10:31:52;11.93;;;3.35;;
15312;SDS011;7757;52.626;4.746;2023-03-01T10:34:40;13.05;;;3.58;;
15312;SDS011;7757;52.626;4.746;2023-03-01T10:37:26;12.05;;;3.00;;
15312;SDS011;7757;52.626;4.746;2023-03-01T10:40:11;13.13;;;3.97;;
15312;SDS011;7757;52.626;4.746;2023-03-01T10:42:57;10.65;;;3.13;;
15312;SDS011;7757;52.626;4.746;2023-03-01T10:45:45;11.60;;;2.92;;
15312;SDS011;7757;52.626;4.746;2023-03-01T10:48:31;10.88;;;3.33;;
15312;SDS011;7757;52.626;4.746;2023-03-01T10:51:18;12.43;;;3.45;;
15312;SDS011;7757;52.626;4.746;2023-03-01T10:54:04;10.52;;;3.05;;
15312;SDS011;7757;52.626;4.746;2023-03-01T10:57:01;12.77;;;3.58;;
15312;SDS011;7757;52.626;4.746;2023-03-01T10:59:48;12.63;;;3.70;;
15312;SDS011;7757;52.626;4.746;2023-03-01T11:02:48;11.60;;;3.20;;
15312;SDS011;7757;52.626;4.746;2023-03-01T11:05:34;14.75;;;3.45;;
15312;SDS011;7757;52.626;4.746;2023-03-01T11:08:32;11.82;;;3.35;;
15312;SDS011;7757;52.626;4.746;2023-03-01T11:11:21;12.13;;;3.50;;
15312;SDS011;7757;52.626;4.746;2023-03-01T11:14:16;11.73;;;3.10;;
15312;SDS011;7757;52.626;4.746;2023-03-01T11:17:03;11.82;;;2.88;;
15312;SDS011;7757;52.626;4.746;2023-03-01T11:19:59;10.98;;;3.05;;
15312;SDS011;7757;52.626;4.746;2023-03-01T11:22:47;10.23;;;3.25;;
15312;SDS011;7757;52.626;4.746;2023-03-01T11:25:38;11.07;;;3.15;;
15312;SDS011;7757;52.626;4.746;2023-03-01T11:28:27;10.60;;;2.95;;
15312;SDS011;7757;52.626;4.746;2023-03-01T11:31:13;10.95;;;3.03;;
15312;SDS011;7757;52.626;4.746;2023-03-01T11:34:02;11.57;;;3.08;;
15312;SDS011;7757;52.626;4.746;2023-03-01T11:36:56;11.77;;;3.28;;
15312;SDS011;7757;52.626;4.746;2023-03-01T11:39:47;11.55;;;3.20;;
15312;SDS011;7757;52.626;4.746;2023-03-01T11:42:46;10.65;;;3.13;;
15312;SDS011;7757;52.626;4.746;2023-03-01T11:45:43;10.60;;;3.17;;
15312;SDS011;7757;52.626;4.746;2023-03-01T11:48:46;10.30;;;3.03;;
15312;SDS011;7757;52.626;4.746;2023-03-01T11:51:45;9.77;;;2.80;;
15312;SDS011;7757;52.626;4.746;2023-03-01T11:54:42;10.73;;;3.00;;
15312;SDS011;7757;52.626;4.746;2023-03-01T11:57:42;10.65;;;3.10;;
15312;SDS011;7757;52.626;4.746;2023-03-01T12:00:40;10.55;;;3.00;;
15312;SDS011;7757;52.626;4.746;2023-03-01T12:03:51;11.10;;;3.13;;
15312;SDS011;7757;52.626;4.746;2023-03-01T12:06:56;10.73;;;3.30;;
15312;SDS011;7757;52.626;4.746;2023-03-01T12:09:55;10.05;;;2.90;;
15312;SDS011;7757;52.626;4.746;2023-03-01T12:19:14;11.02;;;2.97;;
15312;SDS011;7757;52.626;4.746;2023-03-01T12:22:15;9.95;;;2.90;;
15312;SDS011;7757;52.626;4.746;2023-03-01T12:25:16;10.25;;;2.60;;
15312;SDS011;7757;52.626;4.746;2023-03-01T12:31:40;10.13;;;2.55;;
15312;SDS011;7757;52.626;4.746;2023-03-01T12:37:54;10.40;;;3.10;;
15312;SDS011;7757;52.626;4.746;2023-03-01T12:40:50;12.98;;;3.03;;
15312;SDS011;7757;52.626;4.746;2023-03-01T12:43:55;10.45;;;2.90;;
15312;SDS011;7757;52.626;4.746;2023-03-01T12:46:55;9.13;;;2.75;;
15312;SDS011;7757;52.626;4.746;2023-03-01T12:49:51;11.82;;;2.50;;
15312;SDS011;7757;52.626;4.746;2023-03-01T12:52:42;12.77;;;2.70;;
15312;SDS011;7757;52.626;4.746;2023-03-01T12:55:31;10.65;;;2.70;;
15312;SDS011;7757;52.626;4.746;2023-03-01T12:58:21;10.88;;;2.67;;
15312;SDS011;7757;52.626;4.746;2023-03-01T13:01:18;8.55;;;2.53;;
15312;SDS011;7757;52.626;4.746;2023-03-01T13:04:17;10.57;;;2.78;;
15312;SDS011;7757;52.626;4.746;2023-03-01T13:07:20;9.98;;;2.75;;
15312;SDS011;7757;52.626;4.746;2023-03-01T13:10:15;11.32;;;2.90;;
15312;SDS011;7757;52.626;4.746;2023-03-01T13:13:12;10.27;;;2.72;;
15312;SDS011;7757;52.626;4.746;2023-03-01T13:16:19;10.07;;;2.63;;
15312;SDS011;7757;52.626;4.746;2023-03-01T13:19:09;9.82;;;2.70;;
15312;SDS011;7757;52.626;4.746;2023-03-01T13:21:59;10.13;;;2.70;;
15312;SDS011;7757;52.626;4.746;2023-03-01T13:24:45;12.32;;;2.92;;
15312;SDS011;7757;52.626;4.746;2023-03-01T13:27:30;9.70;;;2.50;;
15312;SDS011;7757;52.626;4.746;2023-03-01T13:33:39;9.77;;;2.35;;
15312;SDS011;7757;52.626;4.746;2023-03-01T13:36:45;11.13;;;3.00;;
15312;SDS011;7757;52.626;4.746;2023-03-01T13:39:38;9.98;;;2.90;;
15312;SDS011;7757;52.626;4.746;2023-03-01T13:42:32;11.45;;;2.90;;
15312;SDS011;7757;52.626;4.746;2023-03-01T13:45:22;10.60;;;2.90;;
15312;SDS011;7757;52.626;4.746;2023-03-01T13:48:18;9.57;;;2.55;;
15312;SDS011;7757;52.626;4.746;2023-03-01T13:51:09;8.60;;;2.50;;
15312;SDS011;7757;52.626;4.746;2023-03-01T13:53:57;10.75;;;2.92;;
15312;SDS011;7757;52.626;4.746;2023-03-01T13:56:44;10.05;;;2.67;;
15312;SDS011;7757;52.626;4.746;2023-03-01T13:59:30;10.90;;;2.85;;
15312;SDS011;7757;52.626;4.746;2023-03-01T14:02:15;9.32;;;2.50;;
15312;SDS011;7757;52.626;4.746;2023-03-01T14:05:01;9.35;;;2.60;;
15312;SDS011;7757;52.626;4.746;2023-03-01T14:07:50;11.27;;;2.60;;
15312;SDS011;7757;52.626;4.746;2023-03-01T14:10:39;12.27;;;3.10;;
15312;SDS011;7757;52.626;4.746;2023-03-01T14:13:39;11.07;;;2.90;;
15312;SDS011;7757;52.626;4.746;2023-03-01T14:16:35;10.10;;;3.10;;
15312;SDS011;7757;52.626;4.746;2023-03-01T14:19:29;10.95;;;3.00;;
15312;SDS011;7757;52.626;4.746;2023-03-01T14:22:17;14.02;;;3.30;;
15312;SDS011;7757;52.626;4.746;2023-03-01T14:25:16;11.23;;;3.08;;
15312;SDS011;7757;52.626;4.746;2023-03-01T14:28:10;11.80;;;3.33;;
15312;SDS011;7757;52.626;4.746;2023-03-01T14:31:01;14.88;;;3.70;;
15312;SDS011;7757;52.626;4.746;2023-03-01T14:33:47;13.65;;;3.80;;
15312;SDS011;7757;52.626;4.746;2023-03-01T14:36:40;12.25;;;3.15;;
15312;SDS011;7757;52.626;4.746;2023-03-01T14:39:25;14.35;;;3.05;;
15312;SDS011;7757;52.626;4.746;2023-03-01T14:42:11;11.40;;;3.35;;
15312;SDS011;7757;52.626;4.746;2023-03-01T14:44:58;14.77;;;3.22;;
15312;SDS011;7757;52.626;4.746;2023-03-01T14:47:47;10.00;;;2.88;;
15312;SDS011;7757;52.626;4.746;2023-03-01T14:50:34;11.70;;;2.85;;
15312;SDS011;7757;52.626;4.746;2023-03-01T14:53:21;11.55;;;2.70;;
15312;SDS011;7757;52.626;4.746;2023-03-01T14:56:12;9.18;;;2.78;;
15312;SDS011;7757;52.626;4.746;2023-03-01T14:58:59;12.90;;;3.00;;
15312;SDS011;7757;52.626;4.746;2023-03-01T15:01:46;10.95;;;2.45;;
15312;SDS011;7757;52.626;4.746;2023-03-01T15:04:34;12.98;;;3.08;;
15312;SDS011;7757;52.626;4.746;2023-03-01T15:07:20;14.07;;;2.72;;
15312;SDS011;7757;52.626;4.746;2023-03-01T15:10:11;14.93;;;3.28;;
15312;SDS011;7757;52.626;4.746;2023-03-01T15:13:14;11.45;;;2.90;;
15312;SDS011;7757;52.626;4.746;2023-03-01T15:16:07;11.68;;;2.85;;
15312;SDS011;7757;52.626;4.746;2023-03-01T15:18:55;11.32;;;2.88;;
15312;SDS011;7757;52.626;4.746;2023-03-01T15:21:44;14.93;;;3.00;;
15312;SDS011;7757;52.626;4.746;2023-03-01T15:24:32;13.25;;;2.85;;
15312;SDS011;7757;52.626;4.746;2023-03-01T15:27:20;14.40;;;3.20;;
15312;SDS011;7757;52.626;4.746;2023-03-01T15:30:13;10.02;;;2.78;;
15312;SDS011;7757;52.626;4.746;2023-03-01T15:36:36;9.33;;;2.80;;
15312;SDS011;7757;52.626;4.746;2023-03-01T15:39:37;10.57;;;2.95;;
15312;SDS011;7757;52.626;4.746;2023-03-01T15:45:30;10.75;;;2.80;;
15312;SDS011;7757;52.626;4.746;2023-03-01T15:48:18;9.55;;;2.60;;
15312;SDS011;7757;52.626;4.746;2023-03-01T15:51:04;10.80;;;2.50;;
15312;SDS011;7757;52.626;4.746;2023-03-01T15:53:58;9.70;;;2.75;;
15312;SDS011;7757;52.626;4.746;2023-03-01T15:56:49;10.35;;;2.33;;
15312;SDS011;7757;52.626;4.746;2023-03-01T15:59:35;13.40;;;2.80;;
15312;SDS011;7757;52.626;4.746;2023-03-01T16:02:20;10.38;;;2.72;;
15312;SDS011;7757;52.626;4.746;2023-03-01T16:05:09;9.43;;;2.60;;
15312;SDS011;7757;52.626;4.746;2023-03-01T16:08:02;9.15;;;2.55;;
15312;SDS011;7757;52.626;4.746;2023-03-01T16:10:50;10.80;;;2.85;;
15312;SDS011;7757;52.626;4.746;2023-03-01T16:13:38;9.88;;;2.40;;
15312;SDS011;7757;52.626;4.746;2023-03-01T16:16:23;11.40;;;2.70;;
15312;SDS011;7757;52.626;4.746;2023-03-01T16:19:09;9.68;;;2.35;;
15312;SDS011;7757;52.626;4.746;2023-03-01T16:21:55;10.02;;;2.45;;
15312;SDS011;7757;52.626;4.746;2023-03-01T16:24:40;10.93;;;2.42;;
15312;SDS011;7757;52.626;4.746;2023-03-01T16:27:26;9.23;;;2.50;;
15312;SDS011;7757;52.626;4.746;2023-03-01T16:30:13;10.48;;;2.40;;
15312;SDS011;7757;52.626;4.746;2023-03-01T16:33:00;12.57;;;2.85;;
15312;SDS011;7757;52.626;4.746;2023-03-01T16:35:45;13.23;;;2.50;;
15312;SDS011;7757;52.626;4.746;2023-03-01T16:38:31;9.15;;;2.40;;
15312;SDS011;7757;52.626;4.746;2023-03-01T16:41:17;10.07;;;2.28;;
15312;SDS011;7757;52.626;4.746;2023-03-01T16:44:03;9.13;;;2.33;;
15312;SDS011;7757;52.626;4.746;2023-03-01T16:46:50;8.70;;;2.38;;
15312;SDS011;7757;52.626;4.746;2023-03-01T16:49:35;9.60;;;2.30;;
15312;SDS011;7757;52.626;4.746;2023-03-01T16:52:21;8.68;;;2.40;;
15312;SDS011;7757;52.626;4.746;2023-03-01T16:55:07;10.77;;;2.65;;
15312;SDS011;7757;52.626;4.746;2023-03-01T16:57:53;8.70;;;2.08;;
15312;SDS011;7757;52.626;4.746;2023-03-01T17:00:38;9.60;;;2.50;;
15312;SDS011;7757;52.626;4.746;2023-03-01T17:03:25;13.32;;;3.13;;
15312;SDS011;7757;52.626;4.746;2023-03-01T17:06:12;9.60;;;2.50;;
15312;SDS011;7757;52.626;4.746;2023-03-01T17:08:59;11.18;;;3.03;;
15312;SDS011;7757;52.626;4.746;2023-03-01T17:11:45;14.00;;;4.45;;
15312;SDS011;7757;52.626;4.746;2023-03-01T17:14:30;18.73;;;4.00;;
15312;SDS011;7757;52.626;4.746;2023-03-01T17:17:16;21.63;;;5.47;;
15312;SDS011;7757;52.626;4.746;2023-03-01T17:20:03;28.70;;;5.95;;
15312;SDS011;7757;52.626;4.746;2023-03-01T17:22:49;23.17;;;5.45;;
15312;SDS011;7757;52.626;4.746;2023-03-01T17:25:35;29.52;;;5.55;;
15312;SDS011;7757;52.626;4.746;2023-03-01T17:28:21;21.88;;;6.00;;
15312;SDS011;7757;52.626;4.746;2023-03-01T17:31:07;23.92;;;5.32;;